Helas — C4AZ2 — position and weather

sailwx.info

Track history (hours):
 
Tides and Currents Weather Stations Pressure Air Temp Water Temp Dewpoint Dewpoint Depression Visibility Wind Speed Wind Dir Waves Ship Positions

Helas

Last reported at 2015-Jul-30 01:33 UTC. Time now 2015-Jul-30 02:06 UTC.
Position N 52°28' E 004°36'.

Length 89 m; draft 5.6 m.

Type: Cargo ship. MMSI: 210031000.

Date/timePositionNaut miles runAvg speedWind from/ knotsBaromVisibWave heightAir tempDewpointWater temp
2015-Jul-30 01:33N 52°28' E 004°36'0 0.0
2015-Jul-30 00:33N 52°28' E 004°36'0 0.0
2015-Jul-29 23:33N 52°28' E 004°36'0 0.0
2015-Jul-29 22:33N 52°28' E 004°36'0 0.0
2015-Jul-29 21:33N 52°28' E 004°36'0 0.0
2015-Jul-29 20:33N 52°28' E 004°36'0 0.0
2015-Jul-29 19:33N 52°28' E 004°36'2 1.9
2015-Jul-29 18:34N 52°28' E 004°34'9 9.3
2015-Jul-29 17:33N 52°27' E 004°18'6 6.4
2015-Jul-29 16:34N 52°27' E 004°08'0 0.0
2015-Jul-29 15:34N 52°27' E 004°08'0 0.1
2015-Jul-29 14:33N 52°27' E 004°08'0 0.0
2015-Jul-29 13:33N 52°27' E 004°08'0 0.0
2015-Jul-29 12:33N 52°27' E 004°07'0 0.0
2015-Jul-29 11:34N 52°27' E 004°07'0 0.0
2015-Jul-29 10:33N 52°27' E 004°07'0 0.0
2015-Jul-29 09:33N 52°27' E 004°07'0 0.0
2015-Jul-29 08:33N 52°27' E 004°07'0 0.0
2015-Jul-29 07:33N 52°27' E 004°07'0 0.0
2015-Jul-29 06:33N 52°27' E 004°07'0 0.0
2015-Jul-29 05:33N 52°27' E 004°07'0 0.0
2015-Jul-29 04:33N 52°27' E 004°07'0 0.0
2015-Jul-29 03:32N 52°27' E 004°07'0 0.0
2015-Jul-29 02:33N 52°27' E 004°07'0 0.0
2015-Jul-29 01:33N 52°27' E 004°07'0 0.0
2015-Jul-29 00:33N 52°27' E 004°07'0 0.0
2015-Jul-28 23:33N 52°27' E 004°07'0 0.0
2015-Jul-28 22:33N 52°27' E 004°07'0 0.0
2015-Jul-28 21:33N 52°27' E 004°07'0 0.0
2015-Jul-28 20:33N 52°27' E 004°07'0 0.0
2015-Jul-28 19:33N 52°27' E 004°07'0 0.0
2015-Jul-28 18:34N 52°27' E 004°07'0 0.1
2015-Jul-28 17:33N 52°27' E 004°07'0 0.0
2015-Jul-28 16:34N 52°27' E 004°07'0 0.4
2015-Jul-28 15:33N 52°27' E 004°08'0 0.2
2015-Jul-28 14:33N 52°28' E 004°08'1 0.6
2015-Jul-28 13:33N 52°28' E 004°09'0 0.0
2015-Jul-28 12:33N 52°28' E 004°09'0 0.0
2015-Jul-28 11:34N 52°28' E 004°09'0 0.0
2015-Jul-28 10:34N 52°28' E 004°09'0 0.1
2015-Jul-28 09:34N 52°28' E 004°09'0 0.0
2015-Jul-28 08:34N 52°27' E 004°09'0 0.0
2015-Jul-28 07:34N 52°27' E 004°09'4 3.9
2015-Jul-28 06:33N 52°24' E 004°06'9 9.2
2015-Jul-28 05:33N 52°16' E 003°59'9 9.2
2015-Jul-28 04:34N 52°07' E 003°55'8 7.7
2015-Jul-28 03:33N 52°00' E 004°01'1211.6
2015-Jul-28 02:34N 51°54' E 004°17'1 0.7
2015-Jul-28 01:33N 51°53' E 004°16'0 0.0
2015-Jul-28 00:33N 51°53' E 004°16'0 0.0
2015-Jul-27 23:33N 51°53' E 004°16'0 0.0
2015-Jul-27 22:34N 51°53' E 004°16'0 0.0
2015-Jul-27 21:34N 51°53' E 004°16'0 0.0
2015-Jul-27 20:34N 51°53' E 004°16'0 0.0
2015-Jul-27 19:34N 51°53' E 004°16'0 0.0
2015-Jul-27 18:33N 51°53' E 004°16'0 0.0
2015-Jul-27 17:33N 51°53' E 004°16'0 0.0
2015-Jul-27 16:33N 51°53' E 004°16'0 0.0
2015-Jul-27 15:33N 51°53' E 004°16'0 0.0
2015-Jul-27 14:33N 51°53' E 004°16'0 0.0
2015-Jul-27 13:34N 51°53' E 004°16'0 0.0
2015-Jul-27 12:33N 51°53' E 004°16'0 0.0
2015-Jul-27 11:33N 51°53' E 004°16'0 0.0
2015-Jul-27 10:33N 51°53' E 004°16'0 0.0
2015-Jul-27 09:33N 51°53' E 004°16'0 0.0
2015-Jul-27 08:34N 51°53' E 004°16'0 0.0
2015-Jul-27 07:33N 51°53' E 004°16'0 0.0
2015-Jul-27 06:33N 51°53' E 004°16'0 0.0
2015-Jul-27 05:33N 51°53' E 004°16'0 0.0
2015-Jul-27 04:34N 51°53' E 004°16'0 0.1
2015-Jul-27 03:33N 51°53' E 004°16'0 0.0
2015-Jul-27 02:33N 51°53' E 004°16'0 0.0
2015-Jul-27 01:33N 51°53' E 004°16'0 0.0
2015-Jul-27 00:34N 51°53' E 004°16'0 0.0
2015-Jul-26 23:33N 51°53' E 004°16'0 0.0
2015-Jul-26 22:34N 51°53' E 004°16'0 0.0
2015-Jul-26 21:34N 51°53' E 004°16'0 0.0
2015-Jul-26 20:33N 51°53' E 004°16'0 0.0
2015-Jul-26 19:33N 51°53' E 004°16'0 0.0
2015-Jul-26 18:33N 51°53' E 004°16'0 0.0
2015-Jul-26 17:33N 51°53' E 004°16'0 0.0
2015-Jul-26 16:33N 51°53' E 004°16'0 0.0
2015-Jul-26 15:33N 51°53' E 004°16'0 0.0
2015-Jul-26 14:33N 51°53' E 004°16'0 0.0
2015-Jul-26 13:34N 51°53' E 004°16'0 0.0
2015-Jul-26 12:33N 51°53' E 004°16'0 0.0
2015-Jul-26 11:34N 51°53' E 004°16'0 0.0
2015-Jul-26 10:34N 51°53' E 004°16'0 0.0
2015-Jul-26 09:34N 51°53' E 004°16'0 0.0
2015-Jul-26 08:33N 51°53' E 004°16'0 0.0
2015-Jul-26 07:34N 51°53' E 004°16'0 0.0
2015-Jul-26 06:34N 51°53' E 004°16'0 0.0
2015-Jul-26 05:33N 51°53' E 004°16'0 0.0
2015-Jul-26 04:33N 51°53' E 004°16'0 0.0
2015-Jul-26 03:34N 51°53' E 004°16'0 0.0
2015-Jul-26 02:33N 51°53' E 004°16'0 0.0
2015-Jul-26 01:34N 51°53' E 004°16'0 0.0
2015-Jul-26 00:33N 51°53' E 004°16'0 0.0
2015-Jul-25 23:34N 51°53' E 004°16'0 0.0
2015-Jul-25 22:34N 51°53' E 004°16'0 0.0
2015-Jul-25 21:33N 51°53' E 004°16'0 0.0
2015-Jul-25 20:33N 51°53' E 004°16'0 0.0
2015-Jul-25 19:33N 51°53' E 004°16'1 1.0
2015-Jul-25 18:34N 51°53' E 004°18'7 7.2
2015-Jul-25 17:34N 51°58' E 004°09'8 8.1
2015-Jul-25 16:33N 52°01' E 003°57'7 7.3
2015-Jul-25 15:33N 52°03' E 003°45'76 5.4
2015-Jul-25 01:34N 51°18' E 002°07'7 7.1
2015-Jul-25 00:34N 51°13' E 002°00'7 7.2
2015-Jul-24 23:33N 51°08' E 001°51'8 7.5
2015-Jul-24 22:34N 51°03' E 001°42'8 8.0
2015-Jul-24 21:34N 50°57' E 001°34'57 8.8
2015-Jul-24 15:06N 50°21' E 000°24'  
Track history (hours):
 
Tides and Currents Weather Stations Pressure Air Temp Water Temp Dewpoint Dewpoint Depression Visibility Wind Speed Wind Dir Waves Ship Positions

Helas

Last reported at 2015-Jul-30 01:33 UTC. Time now 2015-Jul-30 02:06 UTC.
Position N 52°28' E 004°36'.

Length 89 m; draft 5.6 m.

Type: Cargo ship. MMSI: 210031000.

Date/timePositionNaut miles runAvg speedWind from/ knotsBaromVisibWave heightAir tempDewpointWater temp
2015-Jul-30 01:33N 52°28' E 004°36'0 0.0
2015-Jul-30 00:33N 52°28' E 004°36'0 0.0
2015-Jul-29 23:33N 52°28' E 004°36'0 0.0
2015-Jul-29 22:33N 52°28' E 004°36'0 0.0
2015-Jul-29 21:33N 52°28' E 004°36'0 0.0
2015-Jul-29 20:33N 52°28' E 004°36'0 0.0
2015-Jul-29 19:33N 52°28' E 004°36'2 1.9
2015-Jul-29 18:34N 52°28' E 004°34'9 9.3
2015-Jul-29 17:33N 52°27' E 004°18'6 6.4
2015-Jul-29 16:34N 52°27' E 004°08'0 0.0
2015-Jul-29 15:34N 52°27' E 004°08'0 0.1
2015-Jul-29 14:33N 52°27' E 004°08'0 0.0
2015-Jul-29 13:33N 52°27' E 004°08'0 0.0
2015-Jul-29 12:33N 52°27' E 004°07'0 0.0
2015-Jul-29 11:34N 52°27' E 004°07'0 0.0
2015-Jul-29 10:33N 52°27' E 004°07'0 0.0
2015-Jul-29 09:33N 52°27' E 004°07'0 0.0
2015-Jul-29 08:33N 52°27' E 004°07'0 0.0
2015-Jul-29 07:33N 52°27' E 004°07'0 0.0
2015-Jul-29 06:33N 52°27' E 004°07'0 0.0
2015-Jul-29 05:33N 52°27' E 004°07'0 0.0
2015-Jul-29 04:33N 52°27' E 004°07'0 0.0
2015-Jul-29 03:32N 52°27' E 004°07'0 0.0
2015-Jul-29 02:33N 52°27' E 004°07'0 0.0
2015-Jul-29 01:33N 52°27' E 004°07'0 0.0
2015-Jul-29 00:33N 52°27' E 004°07'0 0.0
2015-Jul-28 23:33N 52°27' E 004°07'0 0.0
2015-Jul-28 22:33N 52°27' E 004°07'0 0.0
2015-Jul-28 21:33N 52°27' E 004°07'0 0.0
2015-Jul-28 20:33N 52°27' E 004°07'0 0.0
2015-Jul-28 19:33N 52°27' E 004°07'0 0.0
2015-Jul-28 18:34N 52°27' E 004°07'0 0.1
2015-Jul-28 17:33N 52°27' E 004°07'0 0.0
2015-Jul-28 16:34N 52°27' E 004°07'0 0.4
2015-Jul-28 15:33N 52°27' E 004°08'0 0.2
2015-Jul-28 14:33N 52°28' E 004°08'1 0.6
2015-Jul-28 13:33N 52°28' E 004°09'0 0.0
2015-Jul-28 12:33N 52°28' E 004°09'0 0.0
2015-Jul-28 11:34N 52°28' E 004°09'0 0.0
2015-Jul-28 10:34N 52°28' E 004°09'0 0.1
2015-Jul-28 09:34N 52°28' E 004°09'0 0.0
2015-Jul-28 08:34N 52°27' E 004°09'0 0.0
2015-Jul-28 07:34N 52°27' E 004°09'4 3.9
2015-Jul-28 06:33N 52°24' E 004°06'9 9.2
2015-Jul-28 05:33N 52°16' E 003°59'9 9.2
2015-Jul-28 04:34N 52°07' E 003°55'8 7.7
2015-Jul-28 03:33N 52°00' E 004°01'1211.6
2015-Jul-28 02:34N 51°54' E 004°17'1 0.7
2015-Jul-28 01:33N 51°53' E 004°16'0 0.0
2015-Jul-28 00:33N 51°53' E 004°16'0 0.0
2015-Jul-27 23:33N 51°53' E 004°16'0 0.0
2015-Jul-27 22:34N 51°53' E 004°16'0 0.0
2015-Jul-27 21:34N 51°53' E 004°16'0 0.0
2015-Jul-27 20:34N 51°53' E 004°16'0 0.0
2015-Jul-27 19:34N 51°53' E 004°16'0 0.0
2015-Jul-27 18:33N 51°53' E 004°16'0 0.0
2015-Jul-27 17:33N 51°53' E 004°16'0 0.0
2015-Jul-27 16:33N 51°53' E 004°16'0 0.0
2015-Jul-27 15:33N 51°53' E 004°16'0 0.0
2015-Jul-27 14:33N 51°53' E 004°16'0 0.0
2015-Jul-27 13:34N 51°53' E 004°16'0 0.0
2015-Jul-27 12:33N 51°53' E 004°16'0 0.0
2015-Jul-27 11:33N 51°53' E 004°16'0 0.0
2015-Jul-27 10:33N 51°53' E 004°16'0 0.0
2015-Jul-27 09:33N 51°53' E 004°16'0 0.0
2015-Jul-27 08:34N 51°53' E 004°16'0 0.0
2015-Jul-27 07:33N 51°53' E 004°16'0 0.0
2015-Jul-27 06:33N 51°53' E 004°16'0 0.0
2015-Jul-27 05:33N 51°53' E 004°16'0 0.0
2015-Jul-27 04:34N 51°53' E 004°16'0 0.1
2015-Jul-27 03:33N 51°53' E 004°16'0 0.0
2015-Jul-27 02:33N 51°53' E 004°16'0 0.0
2015-Jul-27 01:33N 51°53' E 004°16'0 0.0
2015-Jul-27 00:34N 51°53' E 004°16'0 0.0
2015-Jul-26 23:33N 51°53' E 004°16'0 0.0
2015-Jul-26 22:34N 51°53' E 004°16'0 0.0
2015-Jul-26 21:34N 51°53' E 004°16'0 0.0
2015-Jul-26 20:33N 51°53' E 004°16'0 0.0
2015-Jul-26 19:33N 51°53' E 004°16'0 0.0
2015-Jul-26 18:33N 51°53' E 004°16'0 0.0
2015-Jul-26 17:33N 51°53' E 004°16'0 0.0
2015-Jul-26 16:33N 51°53' E 004°16'0 0.0
2015-Jul-26 15:33N 51°53' E 004°16'0 0.0
2015-Jul-26 14:33N 51°53' E 004°16'0 0.0
2015-Jul-26 13:34N 51°53' E 004°16'0 0.0
2015-Jul-26 12:33N 51°53' E 004°16'0 0.0
2015-Jul-26 11:34N 51°53' E 004°16'0 0.0
2015-Jul-26 10:34N 51°53' E 004°16'0 0.0
2015-Jul-26 09:34N 51°53' E 004°16'0 0.0
2015-Jul-26 08:33N 51°53' E 004°16'0 0.0
2015-Jul-26 07:34N 51°53' E 004°16'0 0.0
2015-Jul-26 06:34N 51°53' E 004°16'0 0.0
2015-Jul-26 05:33N 51°53' E 004°16'0 0.0
2015-Jul-26 04:33N 51°53' E 004°16'0 0.0
2015-Jul-26 03:34N 51°53' E 004°16'0 0.0
2015-Jul-26 02:33N 51°53' E 004°16'0 0.0
2015-Jul-26 01:34N 51°53' E 004°16'0 0.0
2015-Jul-26 00:33N 51°53' E 004°16'0 0.0
2015-Jul-25 23:34N 51°53' E 004°16'0 0.0
2015-Jul-25 22:34N 51°53' E 004°16'0 0.0
2015-Jul-25 21:33N 51°53' E 004°16'0 0.0
2015-Jul-25 20:33N 51°53' E 004°16'0 0.0
2015-Jul-25 19:33N 51°53' E 004°16'1 1.0
2015-Jul-25 18:34N 51°53' E 004°18'7 7.2
2015-Jul-25 17:34N 51°58' E 004°09'8 8.1
2015-Jul-25 16:33N 52°01' E 003°57'7 7.3
2015-Jul-25 15:33N 52°03' E 003°45'76 5.4
2015-Jul-25 01:34N 51°18' E 002°07'7 7.1
2015-Jul-25 00:34N 51°13' E 002°00'7 7.2
2015-Jul-24 23:33N 51°08' E 001°51'8 7.5
2015-Jul-24 22:34N 51°03' E 001°42'8 8.0
2015-Jul-24 21:34N 50°57' E 001°34'57 8.8
2015-Jul-24 15:06N 50°21' E 000°24'  

Dump ship's entire track history